METAR Data
IDs: Format: Raw Decoded Include TAF

Data at: 0854 UTC 03 Aug 2021

EHVK 030848Z AUTO 13004KT 100V190 9999 BKN024 OVC043 17/13 Q1013 WHT NOSIG